sensor_id;sensor_type;location;lat;lon;timestamp;pressure;altitude;pressure_sealevel;temperature;humidity
64078;BME280;51039;49.696;10.808;2022-10-17T00:00:45;98941.19;;;11.93;100.00
64078;BME280;51039;49.696;10.808;2022-10-17T00:03:11;98938.31;;;11.95;100.00
64078;BME280;51039;49.696;10.808;2022-10-17T00:05:40;98941.19;;;11.93;100.00
64078;BME280;51039;49.696;10.808;2022-10-17T00:08:07;98938.75;;;11.92;100.00
64078;BME280;51039;49.696;10.808;2022-10-17T00:10:33;98942.41;;;11.91;100.00
64078;BME280;51039;49.696;10.808;2022-10-17T00:12:59;98939.09;;;11.89;100.00
64078;BME280;51039;49.696;10.808;2022-10-17T00:15:24;98944.41;;;11.89;100.00
64078;BME280;51039;49.696;10.808;2022-10-17T00:17:49;98937.28;;;11.89;100.00
64078;BME280;51039;49.696;10.808;2022-10-17T00:20:15;98944.19;;;11.84;100.00
64078;BME280;51039;49.696;10.808;2022-10-17T00:22:41;98944.75;;;11.79;100.00
64078;BME280;51039;49.696;10.808;2022-10-17T00:25:06;98940.47;;;11.78;100.00
64078;BME280;51039;49.696;10.808;2022-10-17T00:27:36;98955.34;;;11.72;100.00
64078;BME280;51039;49.696;10.808;2022-10-17T00:30:04;98956.53;;;11.70;100.00
64078;BME280;51039;49.696;10.808;2022-10-17T00:32:31;98953.88;;;11.70;100.00
64078;BME280;51039;49.696;10.808;2022-10-17T00:34:56;98956.09;;;11.66;100.00
64078;BME280;51039;49.696;10.808;2022-10-17T00:37:22;98954.84;;;11.62;100.00
64078;BME280;51039;49.696;10.808;2022-10-17T00:39:47;98950.16;;;11.57;100.00
64078;BME280;51039;49.696;10.808;2022-10-17T00:42:12;98946.88;;;11.55;100.00
64078;BME280;51039;49.696;10.808;2022-10-17T00:47:10;98953.19;;;11.54;100.00
64078;BME280;51039;49.696;10.808;2022-10-17T00:49:41;98957.66;;;11.54;100.00
64078;BME280;51039;49.696;10.808;2022-10-17T00:52:14;98952.97;;;11.49;100.00
64078;BME280;51039;49.696;10.808;2022-10-17T00:54:45;98949.47;;;11.49;100.00
64078;BME280;51039;49.696;10.808;2022-10-17T00:57:15;98953.72;;;11.43;100.00
64078;BME280;51039;49.696;10.808;2022-10-17T00:59:41;98951.06;;;11.43;100.00
64078;BME280;51039;49.696;10.808;2022-10-17T01:02:11;98953.94;;;11.42;100.00
64078;BME280;51039;49.696;10.808;2022-10-17T01:04:40;98962.44;;;11.37;100.00
64078;BME280;51039;49.696;10.808;2022-10-17T01:07:08;98968.16;;;11.34;100.00
64078;BME280;51039;49.696;10.808;2022-10-17T01:09:34;98962.41;;;11.30;100.00
64078;BME280;51039;49.696;10.808;2022-10-17T01:15:05;98963.81;;;11.26;100.00
64078;BME280;51039;49.696;10.808;2022-10-17T01:26:25;98962.22;;;11.10;100.00
64078;BME280;51039;49.696;10.808;2022-10-17T01:34:39;98965.47;;;11.06;100.00
64078;BME280;51039;49.696;10.808;2022-10-17T01:37:52;98966.69;;;11.03;100.00
64078;BME280;51039;49.696;10.808;2022-10-17T01:40:35;98962.19;;;11.04;100.00
64078;BME280;51039;49.696;10.808;2022-10-17T01:43:21;98963.00;;;11.04;100.00
64078;BME280;51039;49.696;10.808;2022-10-17T01:45:58;98959.53;;;11.04;100.00
64078;BME280;51039;49.696;10.808;2022-10-17T01:48:36;98965.03;;;11.02;100.00
64078;BME280;51039;49.696;10.808;2022-10-17T01:51:07;98956.44;;;11.00;100.00
64078;BME280;51039;49.696;10.808;2022-10-17T01:53:41;98950.69;;;10.96;100.00
64078;BME280;51039;49.696;10.808;2022-10-17T01:56:13;98951.91;;;10.94;100.00
64078;BME280;51039;49.696;10.808;2022-10-17T01:58:43;98960.69;;;10.94;100.00
64078;BME280;51039;49.696;10.808;2022-10-17T02:01:14;98964.13;;;10.95;100.00
64078;BME280;51039;49.696;10.808;2022-10-17T02:03:41;98969.84;;;10.92;100.00
64078;BME280;51039;49.696;10.808;2022-10-17T02:06:09;98965.34;;;10.92;100.00
64078;BME280;51039;49.696;10.808;2022-10-17T02:08:42;98962.06;;;10.90;100.00
64078;BME280;51039;49.696;10.808;2022-10-17T02:16:26;98955.75;;;10.70;100.00
64078;BME280;51039;49.696;10.808;2022-10-17T02:19:10;98956.16;;;10.67;100.00
64078;BME280;51039;49.696;10.808;2022-10-17T02:27:22;98959.78;;;10.66;100.00
64078;BME280;51039;49.696;10.808;2022-10-17T02:30:00;98963.19;;;10.59;100.00
64078;BME280;51039;49.696;10.808;2022-10-17T02:35:35;98956.47;;;10.57;100.00
64078;BME280;51039;49.696;10.808;2022-10-17T02:38:05;98963.78;;;10.55;100.00
64078;BME280;51039;49.696;10.808;2022-10-17T02:40:32;98960.50;;;10.53;100.00
64078;BME280;51039;49.696;10.808;2022-10-17T02:43:00;98965.16;;;10.51;100.00
64078;BME280;51039;49.696;10.808;2022-10-17T02:45:26;98956.38;;;10.50;100.00
64078;BME280;51039;49.696;10.808;2022-10-17T02:50:52;98964.31;;;10.50;100.00
64078;BME280;51039;49.696;10.808;2022-10-17T02:53:44;98959.59;;;10.46;100.00
64078;BME280;51039;49.696;10.808;2022-10-17T02:56:19;98960.78;;;10.43;100.00
64078;BME280;51039;49.696;10.808;2022-10-17T02:58:47;98972.84;;;10.46;100.00
64078;BME280;51039;49.696;10.808;2022-10-17T03:01:18;98972.03;;;10.45;100.00
64078;BME280;51039;49.696;10.808;2022-10-17T03:03:44;98966.72;;;10.45;100.00
64078;BME280;51039;49.696;10.808;2022-10-17T03:06:10;98964.06;;;10.45;100.00
64078;BME280;51039;49.696;10.808;2022-10-17T03:08:35;98961.59;;;10.44;100.00
64078;BME280;51039;49.696;10.808;2022-10-17T03:11:01;98963.44;;;10.43;100.00
64078;BME280;51039;49.696;10.808;2022-10-17T03:13:27;98968.06;;;10.41;100.00
64078;BME280;51039;49.696;10.808;2022-10-17T03:15:54;98968.91;;;10.41;100.00
64078;BME280;51039;49.696;10.808;2022-10-17T03:18:20;98981.53;;;10.39;100.00
64078;BME280;51039;49.696;10.808;2022-10-17T03:20:45;98979.25;;;10.36;100.00
64078;BME280;51039;49.696;10.808;2022-10-17T03:23:11;98979.41;;;10.35;100.00
64078;BME280;51039;49.696;10.808;2022-10-17T03:25:36;98987.94;;;10.30;100.00
64078;BME280;51039;49.696;10.808;2022-10-17T03:28:01;98988.25;;;10.27;100.00
64078;BME280;51039;49.696;10.808;2022-10-17T03:30:29;98986.81;;;10.25;100.00
64078;BME280;51039;49.696;10.808;2022-10-17T03:32:56;98985.44;;;10.29;100.00
64078;BME280;51039;49.696;10.808;2022-10-17T03:35:22;98988.00;;;10.37;100.00
64078;BME280;51039;49.696;10.808;2022-10-17T03:37:47;98990.34;;;10.47;100.00
64078;BME280;51039;49.696;10.808;2022-10-17T03:40:13;98996.06;;;10.65;100.00
64078;BME280;51039;49.696;10.808;2022-10-17T03:42:38;99002.81;;;10.89;100.00
64078;BME280;51039;49.696;10.808;2022-10-17T03:45:04;98991.81;;;10.86;100.00
64078;BME280;51039;49.696;10.808;2022-10-17T03:47:29;99000.31;;;10.81;100.00
64078;BME280;51039;49.696;10.808;2022-10-17T03:49:55;99003.88;;;10.73;100.00
64078;BME280;51039;49.696;10.808;2022-10-17T03:52:20;98994.50;;;10.71;100.00
64078;BME280;51039;49.696;10.808;2022-10-17T03:54:45;99000.78;;;10.70;100.00
64078;BME280;51039;49.696;10.808;2022-10-17T03:57:11;99010.59;;;10.91;100.00
64078;BME280;51039;49.696;10.808;2022-10-17T03:59:36;99005.06;;;10.86;100.00
64078;BME280;51039;49.696;10.808;2022-10-17T04:02:01;99006.72;;;10.72;100.00
64078;BME280;51039;49.696;10.808;2022-10-17T04:04:27;99017.72;;;10.69;100.00
64078;BME280;51039;49.696;10.808;2022-10-17T04:06:52;99017.72;;;10.69;100.00
64078;BME280;51039;49.696;10.808;2022-10-17T04:09:17;99016.44;;;10.65;100.00
64078;BME280;51039;49.696;10.808;2022-10-17T04:11:43;99013.22;;;10.69;100.00
64078;BME280;51039;49.696;10.808;2022-10-17T04:14:08;99005.09;;;10.71;100.00
64078;BME280;51039;49.696;10.808;2022-10-17T04:16:34;99009.81;;;10.75;100.00
64078;BME280;51039;49.696;10.808;2022-10-17T04:18:59;99014.94;;;10.77;100.00
64078;BME280;51039;49.696;10.808;2022-10-17T04:21:25;99013.03;;;10.71;100.00
64078;BME280;51039;49.696;10.808;2022-10-17T04:23:52;99016.44;;;10.65;100.00
64078;BME280;51039;49.696;10.808;2022-10-17T04:26:21;99017.16;;;10.58;100.00
64078;BME280;51039;49.696;10.808;2022-10-17T04:28:47;99013.25;;;10.54;100.00
64078;BME280;51039;49.696;10.808;2022-10-17T04:31:13;99018.94;;;10.51;100.00
64078;BME280;51039;49.696;10.808;2022-10-17T04:33:38;99022.69;;;10.42;100.00
64078;BME280;51039;49.696;10.808;2022-10-17T04:36:06;99025.72;;;10.39;100.00
64078;BME280;51039;49.696;10.808;2022-10-17T04:38:34;99032.78;;;10.32;100.00
64078;BME280;51039;49.696;10.808;2022-10-17T04:41:00;99027.81;;;10.29;100.00
64078;BME280;51039;49.696;10.808;2022-10-17T04:43:27;99028.53;;;10.22;100.00
64078;BME280;51039;49.696;10.808;2022-10-17T04:45:53;99023.78;;;10.18;100.00
64078;BME280;51039;49.696;10.808;2022-10-17T04:48:18;99032.38;;;10.05;100.00
64078;BME280;51039;49.696;10.808;2022-10-17T04:50:53;99028.09;;;10.04;100.00
64078;BME280;51039;49.696;10.808;2022-10-17T04:53:21;99032.56;;;10.03;100.00
64078;BME280;51039;49.696;10.808;2022-10-17T04:55:46;99026.00;;;9.99;100.00
64078;BME280;51039;49.696;10.808;2022-10-17T04:58:12;99031.47;;;9.98;100.00
64078;BME280;51039;49.696;10.808;2022-10-17T05:00:37;99026.00;;;9.99;100.00
64078;BME280;51039;49.696;10.808;2022-10-17T05:03:02;99029.28;;;10.01;100.00
64078;BME280;51039;49.696;10.808;2022-10-17T05:05:28;99028.63;;;9.99;100.00
64078;BME280;51039;49.696;10.808;2022-10-17T05:07:54;99032.47;;;9.97;100.00
64078;BME280;51039;49.696;10.808;2022-10-17T05:10:19;99032.66;;;9.95;100.00
64078;BME280;51039;49.696;10.808;2022-10-17T05:12:48;99035.31;;;9.95;100.00
64078;BME280;51039;49.696;10.808;2022-10-17T05:15:13;99038.13;;;9.94;100.00
64078;BME280;51039;49.696;10.808;2022-10-17T05:17:39;99036.47;;;9.93;100.00
64078;BME280;51039;49.696;10.808;2022-10-17T05:20:04;99036.13;;;9.96;100.00
64078;BME280;51039;49.696;10.808;2022-10-17T05:22:30;99036.13;;;9.96;100.00
64078;BME280;51039;49.696;10.808;2022-10-17T05:24:55;99044.34;;;10.01;100.00
64078;BME280;51039;49.696;10.808;2022-10-17T05:27:21;99044.53;;;9.99;100.00
64078;BME280;51039;49.696;10.808;2022-10-17T05:29:46;99041.06;;;9.99;100.00
64078;BME280;51039;49.696;10.808;2022-10-17T05:32:11;99051.81;;;9.97;100.00
64078;BME280;51039;49.696;10.808;2022-10-17T05:34:37;99058.38;;;10.01;100.00
64078;BME280;51039;49.696;10.808;2022-10-17T05:37:02;99053.56;;;10.05;100.00
64078;BME280;51039;49.696;10.808;2022-10-17T05:39:28;99057.75;;;9.99;100.00
64078;BME280;51039;49.696;10.808;2022-10-17T05:41:53;99057.94;;;9.98;100.00
64078;BME280;51039;49.696;10.808;2022-10-17T05:44:18;99047.97;;;10.00;100.00
64078;BME280;51039;49.696;10.808;2022-10-17T05:46:44;99056.38;;;10.03;100.00
64078;BME280;51039;49.696;10.808;2022-10-17T05:49:09;99057.75;;;9.99;100.00
64078;BME280;51039;49.696;10.808;2022-10-17T05:51:34;99067.97;;;10.02;100.00
64078;BME280;51039;49.696;10.808;2022-10-17T05:54:00;99060.94;;;10.10;100.00
64078;BME280;51039;49.696;10.808;2022-10-17T05:56:25;99069.63;;;10.18;100.00
64078;BME280;51039;49.696;10.808;2022-10-17T05:58:51;99076.03;;;10.24;100.00
64078;BME280;51039;49.696;10.808;2022-10-17T06:01:16;99076.13;;;10.31;100.00
64078;BME280;51039;49.696;10.808;2022-10-17T06:03:42;99078.66;;;10.39;100.00
64078;BME280;51039;49.696;10.808;2022-10-17T06:06:08;99078.59;;;10.47;100.00
64078;BME280;51039;49.696;10.808;2022-10-17T06:08:35;99082.69;;;10.65;100.00
64078;BME280;51039;49.696;10.808;2022-10-17T06:11:01;99081.94;;;10.71;100.00
64078;BME280;51039;49.696;10.808;2022-10-17T06:13:27;99095.34;;;10.84;100.00
64078;BME280;51039;49.696;10.808;2022-10-17T06:15:53;99085.72;;;10.98;100.00
64078;BME280;51039;49.696;10.808;2022-10-17T06:18:18;99077.13;;;11.17;100.00
64078;BME280;51039;49.696;10.808;2022-10-17T06:20:44;99078.47;;;11.28;100.00
64078;BME280;51039;49.696;10.808;2022-10-17T06:23:09;99085.72;;;11.41;100.00
64078;BME280;51039;49.696;10.808;2022-10-17T06:25:34;99081.94;;;11.50;99.45
64078;BME280;51039;49.696;10.808;2022-10-17T06:28:00;99078.50;;;11.56;99.00
64078;BME280;51039;49.696;10.808;2022-10-17T06:30:25;99082.44;;;11.61;99.09
64078;BME280;51039;49.696;10.808;2022-10-17T06:32:51;99084.56;;;11.72;98.40
64078;BME280;51039;49.696;10.808;2022-10-17T06:35:17;99095.09;;;11.87;98.06
64078;BME280;51039;49.696;10.808;2022-10-17T06:37:42;99101.69;;;11.91;97.72
64078;BME280;51039;49.696;10.808;2022-10-17T06:40:08;99098.13;;;12.05;97.38
64078;BME280;51039;49.696;10.808;2022-10-17T06:42:34;99102.91;;;12.16;97.01
64078;BME280;51039;49.696;10.808;2022-10-17T06:44:59;99110.47;;;12.20;96.99
64078;BME280;51039;49.696;10.808;2022-10-17T06:47:25;99120.09;;;12.21;96.75
64078;BME280;51039;49.696;10.808;2022-10-17T06:49:50;99115.41;;;12.29;96.43
64078;BME280;51039;49.696;10.808;2022-10-17T06:52:16;99118.66;;;12.25;96.87
64078;BME280;51039;49.696;10.808;2022-10-17T06:54:42;99118.03;;;12.23;96.60
64078;BME280;51039;49.696;10.808;2022-10-17T06:57:08;99120.47;;;12.17;96.72
64078;BME280;51039;49.696;10.808;2022-10-17T06:59:33;99128.41;;;12.17;97.18
64078;BME280;51039;49.696;10.808;2022-10-17T07:01:59;99120.69;;;12.23;96.79
64078;BME280;51039;49.696;10.808;2022-10-17T07:04:25;99130.91;;;12.26;96.87
64078;BME280;51039;49.696;10.808;2022-10-17T07:06:51;99130.34;;;12.30;96.68
64078;BME280;51039;49.696;10.808;2022-10-17T07:09:16;99128.34;;;12.39;96.63
64078;BME280;51039;49.696;10.808;2022-10-17T07:11:42;99124.72;;;12.47;97.04
64078;BME280;51039;49.696;10.808;2022-10-17T07:14:08;99120.06;;;12.55;97.23
64078;BME280;51039;49.696;10.808;2022-10-17T07:16:33;99137.13;;;12.74;97.62
64078;BME280;51039;49.696;10.808;2022-10-17T07:18:59;99137.81;;;12.96;98.13
64078;BME280;51039;49.696;10.808;2022-10-17T07:21:24;99139.31;;;13.12;98.24
64078;BME280;51039;49.696;10.808;2022-10-17T07:23:50;99134.72;;;13.54;96.83
64078;BME280;51039;49.696;10.808;2022-10-17T07:26:15;99132.91;;;13.95;94.73
64078;BME280;51039;49.696;10.808;2022-10-17T07:28:43;99134.75;;;15.00;90.33
64078;BME280;51039;49.696;10.808;2022-10-17T07:31:10;99135.41;;;16.16;85.80
64078;BME280;51039;49.696;10.808;2022-10-17T07:33:39;99138.78;;;16.66;83.22
64078;BME280;51039;49.696;10.808;2022-10-17T07:36:04;99141.47;;;17.76;79.69
64078;BME280;51039;49.696;10.808;2022-10-17T07:38:30;99143.66;;;18.33;76.74
64078;BME280;51039;49.696;10.808;2022-10-17T07:40:58;99155.00;;;18.99;74.42
64078;BME280;51039;49.696;10.808;2022-10-17T07:43:26;99151.66;;;19.49;73.38
64078;BME280;51039;49.696;10.808;2022-10-17T07:45:52;99150.66;;;20.01;69.95
64078;BME280;51039;49.696;10.808;2022-10-17T07:48:18;99152.66;;;20.45;69.40
64078;BME280;51039;49.696;10.808;2022-10-17T07:50:45;99144.53;;;20.78;68.50
64078;BME280;51039;49.696;10.808;2022-10-17T07:53:10;99162.31;;;21.51;65.42
64078;BME280;51039;49.696;10.808;2022-10-17T07:55:36;99158.19;;;21.70;66.44
64078;BME280;51039;49.696;10.808;2022-10-17T07:58:02;99168.19;;;22.02;63.81
64078;BME280;51039;49.696;10.808;2022-10-17T08:00:28;99164.72;;;22.49;61.78
64078;BME280;51039;49.696;10.808;2022-10-17T08:02:53;99162.88;;;22.50;61.48
64078;BME280;51039;49.696;10.808;2022-10-17T08:05:18;99160.31;;;22.33;63.23
64078;BME280;51039;49.696;10.808;2022-10-17T08:07:44;99153.44;;;23.21;61.03
64078;BME280;51039;49.696;10.808;2022-10-17T08:10:13;99152.16;;;23.44;58.60
64078;BME280;51039;49.696;10.808;2022-10-17T08:12:40;99155.13;;;23.42;59.90
64078;BME280;51039;49.696;10.808;2022-10-17T08:15:06;99154.28;;;23.21;58.66
64078;BME280;51039;49.696;10.808;2022-10-17T08:17:36;99157.31;;;23.50;57.79
64078;BME280;51039;49.696;10.808;2022-10-17T08:20:02;99164.34;;;23.57;57.59
64078;BME280;51039;49.696;10.808;2022-10-17T08:22:29;99160.00;;;23.50;57.64
64078;BME280;51039;49.696;10.808;2022-10-17T08:24:55;99155.19;;;24.19;56.23
64078;BME280;51039;49.696;10.808;2022-10-17T08:27:21;99153.00;;;23.75;56.08
64078;BME280;51039;49.696;10.808;2022-10-17T08:29:49;99151.63;;;23.57;57.11
64078;BME280;51039;49.696;10.808;2022-10-17T08:32:18;99150.34;;;23.90;56.60
64078;BME280;51039;49.696;10.808;2022-10-17T08:34:49;99144.84;;;23.39;57.72
64078;BME280;51039;49.696;10.808;2022-10-17T08:37:15;99155.72;;;23.75;56.91
64078;BME280;51039;49.696;10.808;2022-10-17T08:39:40;99145.47;;;23.93;56.33
64078;BME280;51039;49.696;10.808;2022-10-17T08:42:17;99149.72;;;24.60;55.35
64078;BME280;51039;49.696;10.808;2022-10-17T08:47:52;99149.78;;;25.60;52.18
64078;BME280;51039;49.696;10.808;2022-10-17T08:50:26;99144.56;;;25.29;53.33
64078;BME280;51039;49.696;10.808;2022-10-17T08:52:56;99144.44;;;24.84;53.14
64078;BME280;51039;49.696;10.808;2022-10-17T08:55:29;99140.22;;;25.23;52.65
64078;BME280;51039;49.696;10.808;2022-10-17T08:57:57;99140.97;;;25.34;53.23
64078;BME280;51039;49.696;10.808;2022-10-17T09:00:22;99148.19;;;25.93;51.67
64078;BME280;51039;49.696;10.808;2022-10-17T09:09:01;99139.34;;;25.72;51.53
64078;BME280;51039;49.696;10.808;2022-10-17T09:11:55;99131.75;;;25.74;51.20
64078;BME280;51039;49.696;10.808;2022-10-17T09:20:40;99136.75;;;26.50;49.32
64078;BME280;51039;49.696;10.808;2022-10-17T09:23:12;99138.41;;;26.21;50.33
64078;BME280;51039;49.696;10.808;2022-10-17T09:25:42;99143.09;;;26.16;50.12
64078;BME280;51039;49.696;10.808;2022-10-17T09:28:11;99132.66;;;25.99;51.38
64078;BME280;51039;49.696;10.808;2022-10-17T09:30:42;99126.88;;;26.05;50.84
64078;BME280;51039;49.696;10.808;2022-10-17T09:33:17;99134.31;;;25.95;51.33
64078;BME280;51039;49.696;10.808;2022-10-17T09:35:44;99137.19;;;26.33;50.88
64078;BME280;51039;49.696;10.808;2022-10-17T09:38:14;99138.19;;;25.83;51.66
64078;BME280;51039;49.696;10.808;2022-10-17T09:40:47;99135.84;;;24.77;54.68
64078;BME280;51039;49.696;10.808;2022-10-17T09:43:17;99139.19;;;25.58;53.12
64078;BME280;51039;49.696;10.808;2022-10-17T09:45:45;99144.00;;;25.66;52.89
64078;BME280;51039;49.696;10.808;2022-10-17T09:50:59;99137.09;;;26.43;50.20
64078;BME280;51039;49.696;10.808;2022-10-17T09:53:26;99145.41;;;26.28;50.59
64078;BME280;51039;49.696;10.808;2022-10-17T09:55:57;99133.28;;;26.20;50.81
64078;BME280;51039;49.696;10.808;2022-10-17T09:58:42;99132.16;;;25.92;50.75
64078;BME280;51039;49.696;10.808;2022-10-17T10:01:14;99133.38;;;25.75;52.66
64078;BME280;51039;49.696;10.808;2022-10-17T10:03:47;99130.44;;;26.06;52.38
64078;BME280;51039;49.696;10.808;2022-10-17T10:06:16;99123.88;;;25.73;51.69
64078;BME280;51039;49.696;10.808;2022-10-17T10:08:48;99122.59;;;25.65;52.41
64078;BME280;51039;49.696;10.808;2022-10-17T10:11:15;99126.03;;;25.41;53.25
64078;BME280;51039;49.696;10.808;2022-10-17T10:13:42;99125.75;;;25.43;53.38
64078;BME280;51039;49.696;10.808;2022-10-17T10:16:13;99128.91;;;25.90;51.41
64078;BME280;51039;49.696;10.808;2022-10-17T10:18:41;99124.13;;;26.11;50.86
64078;BME280;51039;49.696;10.808;2022-10-17T10:21:14;99125.88;;;26.50;50.98
64078;BME280;51039;49.696;10.808;2022-10-17T10:23:43;99127.59;;;26.16;51.41
64078;BME280;51039;49.696;10.808;2022-10-17T10:26:26;99123.75;;;25.54;51.57
64078;BME280;51039;49.696;10.808;2022-10-17T10:28:59;99130.03;;;25.49;52.32
64078;BME280;51039;49.696;10.808;2022-10-17T10:31:31;99129.84;;;26.09;51.34
64078;BME280;51039;49.696;10.808;2022-10-17T10:34:25;99132.28;;;24.87;56.19
64078;BME280;51039;49.696;10.808;2022-10-17T10:36:55;99128.72;;;25.41;54.30
64078;BME280;51039;49.696;10.808;2022-10-17T10:39:26;99137.66;;;25.47;53.15
64078;BME280;51039;49.696;10.808;2022-10-17T10:48:29;99117.38;;;25.74;53.27
64078;BME280;51039;49.696;10.808;2022-10-17T10:50:59;99115.41;;;25.50;54.06
64078;BME280;51039;49.696;10.808;2022-10-17T10:56:05;99111.50;;;25.17;53.74
64078;BME280;51039;49.696;10.808;2022-10-17T11:06:36;99106.34;;;24.65;56.43
64078;BME280;51039;49.696;10.808;2022-10-17T11:09:25;99107.09;;;24.76;56.69
64078;BME280;51039;49.696;10.808;2022-10-17T11:12:32;99107.97;;;24.61;57.18
64078;BME280;51039;49.696;10.808;2022-10-17T11:15:13;99106.94;;;24.52;58.09
64078;BME280;51039;49.696;10.808;2022-10-17T11:20:19;99112.59;;;24.61;57.64
64078;BME280;51039;49.696;10.808;2022-10-17T11:23:12;99109.91;;;24.50;55.95
64078;BME280;51039;49.696;10.808;2022-10-17T11:25:45;99108.03;;;24.41;56.99
64078;BME280;51039;49.696;10.808;2022-10-17T11:28:22;99115.41;;;23.99;58.02
64078;BME280;51039;49.696;10.808;2022-10-17T11:30:56;99112.13;;;24.33;58.00
64078;BME280;51039;49.696;10.808;2022-10-17T11:36:01;99107.03;;;23.96;58.25
64078;BME280;51039;49.696;10.808;2022-10-17T11:41:16;99106.75;;;23.97;58.54
64078;BME280;51039;49.696;10.808;2022-10-17T11:43:51;99104.00;;;24.33;58.52
64078;BME280;51039;49.696;10.808;2022-10-17T11:46:22;99095.06;;;24.22;57.63
64078;BME280;51039;49.696;10.808;2022-10-17T11:51:44;99096.34;;;24.45;56.95
64078;BME280;51039;49.696;10.808;2022-10-17T11:54:16;99089.06;;;24.36;57.73
64078;BME280;51039;49.696;10.808;2022-10-17T12:02:08;99095.28;;;24.57;55.85
64078;BME280;51039;49.696;10.808;2022-10-17T12:12:38;99075.66;;;23.95;55.78
64078;BME280;51039;49.696;10.808;2022-10-17T12:17:36;99072.38;;;24.03;56.49
64078;BME280;51039;49.696;10.808;2022-10-17T12:22:47;99061.81;;;24.01;58.12
64078;BME280;51039;49.696;10.808;2022-10-17T12:25:19;99053.94;;;24.20;58.67
64078;BME280;51039;49.696;10.808;2022-10-17T12:28:09;99059.28;;;24.41;57.04
64078;BME280;51039;49.696;10.808;2022-10-17T12:30:37;99057.91;;;24.38;56.76
64078;BME280;51039;49.696;10.808;2022-10-17T12:33:16;99050.69;;;24.23;57.63
64078;BME280;51039;49.696;10.808;2022-10-17T12:35:46;99047.44;;;24.11;57.60
64078;BME280;51039;49.696;10.808;2022-10-17T12:38:19;99047.50;;;23.65;58.73
64078;BME280;51039;49.696;10.808;2022-10-17T12:40:47;99046.97;;;23.73;58.22
64078;BME280;51039;49.696;10.808;2022-10-17T12:48:12;99056.63;;;24.25;57.05
64078;BME280;51039;49.696;10.808;2022-10-17T12:59:16;99070.75;;;24.07;59.34
64078;BME280;51039;49.696;10.808;2022-10-17T13:01:47;99088.34;;;24.04;59.33
64078;BME280;51039;49.696;10.808;2022-10-17T13:04:19;99089.16;;;24.00;58.77
64078;BME280;51039;49.696;10.808;2022-10-17T13:06:47;99093.19;;;24.07;59.05
64078;BME280;51039;49.696;10.808;2022-10-17T13:11:50;99090.25;;;23.99;58.34
64078;BME280;51039;49.696;10.808;2022-10-17T13:14:17;99090.28;;;23.88;59.50
64078;BME280;51039;49.696;10.808;2022-10-17T13:16:55;99090.53;;;23.97;58.85
64078;BME280;51039;49.696;10.808;2022-10-17T13:19:24;99087.28;;;23.69;60.58
64078;BME280;51039;49.696;10.808;2022-10-17T13:26:59;99093.75;;;23.68;60.21
64078;BME280;51039;49.696;10.808;2022-10-17T13:29:26;99087.03;;;23.81;59.98
64078;BME280;51039;49.696;10.808;2022-10-17T13:31:59;99091.84;;;24.00;60.30
64078;BME280;51039;49.696;10.808;2022-10-17T13:36:54;99100.53;;;23.86;59.63
64078;BME280;51039;49.696;10.808;2022-10-17T13:39:22;99092.41;;;23.91;58.77
64078;BME280;51039;49.696;10.808;2022-10-17T13:41:51;99093.50;;;24.06;58.79
64078;BME280;51039;49.696;10.808;2022-10-17T13:44:19;99085.88;;;24.13;59.20
64078;BME280;51039;49.696;10.808;2022-10-17T13:46:47;99091.84;;;24.10;59.66
64078;BME280;51039;49.696;10.808;2022-10-17T13:51:56;99087.00;;;23.97;59.80
64078;BME280;51039;49.696;10.808;2022-10-17T13:56:57;99087.00;;;23.91;58.51
64078;BME280;51039;49.696;10.808;2022-10-17T13:59:24;99091.88;;;23.95;58.73
64078;BME280;51039;49.696;10.808;2022-10-17T14:01:55;99094.59;;;23.95;59.33
64078;BME280;51039;49.696;10.808;2022-10-17T14:04:21;99096.22;;;23.90;58.85
64078;BME280;51039;49.696;10.808;2022-10-17T14:06:46;99094.59;;;23.95;59.11
64078;BME280;51039;49.696;10.808;2022-10-17T14:09:23;99098.38;;;23.94;59.69
64078;BME280;51039;49.696;10.808;2022-10-17T14:12:10;99091.59;;;24.01;59.77
64078;BME280;51039;49.696;10.808;2022-10-17T14:14:37;99096.19;;;23.96;60.40
64078;BME280;51039;49.696;10.808;2022-10-17T14:17:14;99088.34;;;23.94;59.35
64078;BME280;51039;49.696;10.808;2022-10-17T14:19:49;99089.72;;;23.81;60.72
64078;BME280;51039;49.696;10.808;2022-10-17T14:22:26;99095.94;;;23.82;60.45
64078;BME280;51039;49.696;10.808;2022-10-17T14:24:53;99106.47;;;23.94;60.04
64078;BME280;51039;49.696;10.808;2022-10-17T14:27:32;99106.78;;;23.82;59.36
64078;BME280;51039;49.696;10.808;2022-10-17T14:30:06;99106.22;;;23.69;60.82
64078;BME280;51039;49.696;10.808;2022-10-17T14:32:52;99108.63;;;23.61;61.35
64078;BME280;51039;49.696;10.808;2022-10-17T14:35:22;99111.31;;;23.56;61.08
64078;BME280;51039;49.696;10.808;2022-10-17T14:37:48;99113.75;;;23.57;60.85
64078;BME280;51039;49.696;10.808;2022-10-17T14:40:17;99120.53;;;23.55;61.34
64078;BME280;51039;49.696;10.808;2022-10-17T14:42:44;99113.25;;;23.50;61.80
64078;BME280;51039;49.696;10.808;2022-10-17T14:45:11;99120.00;;;23.58;61.85
64078;BME280;51039;49.696;10.808;2022-10-17T14:47:50;99121.06;;;23.57;62.43
64078;BME280;51039;49.696;10.808;2022-10-17T14:50:20;99120.78;;;23.63;62.04
64078;BME280;51039;49.696;10.808;2022-10-17T14:53:02;99120.00;;;23.58;61.45
64078;BME280;51039;49.696;10.808;2022-10-17T14:55:30;99122.41;;;23.49;61.64
64078;BME280;51039;49.696;10.808;2022-10-17T14:57:58;99124.59;;;23.57;62.05
64078;BME280;51039;49.696;10.808;2022-10-17T15:00:23;99125.38;;;23.47;62.63
64078;BME280;51039;49.696;10.808;2022-10-17T15:02:49;99121.63;;;23.48;61.91
64078;BME280;51039;49.696;10.808;2022-10-17T15:05:16;99126.75;;;23.45;62.95